Toledo, OH (43601)

11:53 AM EDT on August 27, 2016 (GMT -0400)
University of Toledo | | Change Station

Elev 604 ft 41.66 °N, 83.62 °W | Updated 5 minutes ago

Scattered Clouds
Scattered Clouds
83.3 °F
Feels Like 88 °F
N
0.0
Wind Variable Wind from North
Gusts 2.6 mph

Today
High -- | Low -- °F
--% Chance of Precip.
Yesterday
High -- | Low -- °F
Precip. -- in
Pressure 30.13 in
Visibility 10.0 miles
Clouds Few 3700 ft
Scattered Clouds 5000 ft
Heat Index 88 °F
Dew Point 71 °F
Humidity 66%
Rainfall Not available.
Snow Depth Not available.
6:55 AM 8:14 PM
Waning Crescent, 23% visible
METAR KTDZ 271453Z AUTO 13005KT 10SM FEW037 SCT050 27/19 A3014 RMK AO2 SLP203 T02670194 57000
Pressure 30.13 in
Visibility 10.0 miles
Clouds Few 3700 ft
Scattered Clouds 5000 ft
Heat Index 88 °F
Dew Point 71 °F
Humidity 66%
Rainfall Not available.
Snow Depth Not available.
6:55 AM 8:14 PM
Waning Crescent, 23% visible
METAR KTDZ 271453Z AUTO 13005KT 10SM FEW037 SCT050 27/19 A3014 RMK AO2 SLP203 T02670194 57000

10-Day Weather Forecast

Almanac

Astronomy

Aug. 27, 2016 Rise Set
Actual Time
Civil Twilight
Nautical Twilight
Astronomical Twilight
Moon
Length of Visible Light
Length of Day
Tomorrow will be .
, % of the Moon is Illuminated

Today's Extremes

State Highs State Lows

Community

WunderPhotos

Upload Photos

1,935,358 photos uploaded!

WunderBlog® & News

Nearby

Air Quality

  Air Quality AQ Index Pollutant
Not available.

Snow Depth

Station Depth Elevation

Earthquake Activity

City Distance Mag. Time & Date
Minimum magnitude displayed is 2.5.

Coastal Water Temperatures

Place Temperature

Stations

Nearby Weather Stations

Station Location Temp. Windchill Dew Point Humidity Wind Precip. Elev Updated Type
                   

Watches & Warnings

There are currently no watches in effect.